Time;durP1;ratioP1;P1;durP2;ratioP2;P2;SDS_P1;SDS_P2;PMS_P1;PMS_P2;Temp;Humidity;BMP_temperature;BMP_pressure;BME280_temperature;BME280_humidity;BME280_pressure;Samples;Min_cycle;Max_cycle;Signal;HPM_P1;HPM_P2
2022/03/13 00:01:47;;;;;;;12.87;10.17;;;;;;;-0.14;56.04;100784.69;5070526;28;20274;-58
2022/03/13 00:04:14;;;;;;;14.63;10.70;;;;;;;-0.10;55.93;100776.56;5069599;28;20970;-58
2022/03/13 00:06:43;;;;;;;14.67;11.70;;;;;;;-0.05;54.71;100778.69;5070273;28;20220;-59
2022/03/13 00:09:14;;;;;;;15.57;10.90;;;;;;;-0.04;54.97;100775.41;5070613;28;20187;-58
2022/03/13 00:11:42;;;;;;;13.53;9.23;;;;;;;-0.07;54.04;100774.28;5070293;28;20188;-58
2022/03/13 00:14:10;;;;;;;12.80;9.77;;;;;;;-0.02;54.75;100778.03;5070445;28;20249;-58
2022/03/13 00:16:38;;;;;;;11.73;9.37;;;;;;;-0.03;54.48;100768.72;5070466;28;20206;-58
2022/03/13 00:19:06;;;;;;;13.13;9.03;;;;;;;-0.08;55.35;100775.03;5070277;28;20192;-58
2022/03/13 00:21:35;;;;;;;14.70;9.47;;;;;;;-0.15;55.57;100761.06;5070159;28;20187;-59
2022/03/13 00:24:02;;;;;;;15.63;8.90;;;;;;;-0.11;54.84;100762.19;5070444;28;20897;-58
2022/03/13 00:26:35;;;;;;;15.10;9.40;;;;;;;-0.07;55.14;100756.59;5070187;28;20258;-58
2022/03/13 00:29:02;;;;;;;10.60;7.97;;;;;;;-0.07;54.31;100761.66;5070109;28;20196;-58
2022/03/13 00:31:29;;;;;;;11.23;7.83;;;;;;;-0.10;54.41;100754.72;5068130;28;20199;-58
2022/03/13 00:33:56;;;;;;;11.07;8.97;;;;;;;-0.07;54.83;100757.50;5070045;28;20191;-58
2022/03/13 00:36:24;;;;;;;10.60;8.17;;;;;;;-0.13;54.77;100753.59;5069927;28;20223;-58
2022/03/13 00:38:51;;;;;;;11.50;9.10;;;;;;;-0.12;54.25;100755.38;5065787;28;20867;-58
2022/03/13 00:41:18;;;;;;;8.93;7.40;;;;;;;-0.09;54.41;100750.56;5059474;28;20275;-58
2022/03/13 00:43:46;;;;;;;8.50;6.87;;;;;;;-0.16;54.87;100745.78;5066406;28;20191;-58
2022/03/13 00:46:13;;;;;;;10.73;7.43;;;;;;;-0.39;54.53;100713.69;5069659;28;20219;-58
2022/03/13 00:48:41;;;;;;;10.07;7.70;;;;;;;-0.16;54.44;100748.31;5056166;28;20262;-58
2022/03/13 00:51:08;;;;;;;9.60;8.20;;;;;;;-0.17;55.54;100756.66;5072210;28;20202;-58
2022/03/13 00:53:35;;;;;;;12.10;9.33;;;;;;;-0.23;56.44;100748.59;5062524;28;20275;-58
2022/03/13 00:56:01;;;;;;;12.80;9.30;;;;;;;-0.41;56.57;100759.78;5065068;28;20300;-58
2022/03/13 00:58:28;;;;;;;14.13;10.23;;;;;;;-0.45;56.43;100756.13;5069069;28;20322;-58
2022/03/13 01:00:57;;;;;;;13.53;10.27;;;;;;;-0.49;57.15;100750.69;5069628;28;20223;-58
2022/03/13 01:03:32;;;;;;;15.50;11.07;;;;;;;-0.53;57.74;100754.63;5069316;28;20195;-57
2022/03/13 01:06:00;;;;;;;16.33;10.80;;;;;;;-0.54;57.02;100750.34;5069081;28;20282;-57
2022/03/13 01:08:27;;;;;;;15.43;11.40;;;;;;;-0.53;58.17;100758.81;5072193;28;20400;-58
2022/03/13 01:10:55;;;;;;;15.77;11.27;;;;;;;-0.50;57.41;100748.94;5070434;28;20195;-57
2022/03/13 01:13:22;;;;;;;15.27;11.63;;;;;;;-0.50;57.42;100752.34;5066845;28;20227;-57
2022/03/13 01:15:50;;;;;;;17.07;12.27;;;;;;;-0.50;57.79;100759.03;5078320;28;20958;-57
2022/03/13 01:18:18;;;;;;;21.17;13.27;;;;;;;-0.56;57.45;100748.44;5074655;28;20601;-57
2022/03/13 01:20:48;;;;;;;17.60;13.17;;;;;;;-0.54;58.08;100751.97;5073954;28;20200;-57
2022/03/13 01:23:16;;;;;;;20.87;13.30;;;;;;;-0.54;57.54;100751.97;5065819;28;20202;-57
2022/03/13 01:25:43;;;;;;;17.13;12.07;;;;;;;-0.60;57.13;100748.22;5072894;28;20570;-58
2022/03/13 01:28:10;;;;;;;19.50;12.93;;;;;;;-0.76;56.94;100737.66;5072829;28;20667;-57
2022/03/13 01:30:37;;;;;;;19.53;12.50;;;;;;;-0.63;57.05;100740.38;5078059;28;20229;-57
2022/03/13 01:33:04;;;;;;;19.37;12.97;;;;;;;-0.62;57.45;100749.75;5070188;28;20202;-57
2022/03/13 01:35:32;;;;;;;19.83;12.20;;;;;;;-0.60;56.76;100753.25;5070221;28;20202;-58
2022/03/13 01:37:59;;;;;;;17.37;12.27;;;;;;;-0.64;56.67;100746.22;5072322;28;20183;-58
2022/03/13 01:40:26;;;;;;;19.50;12.57;;;;;;;-0.64;57.29;100747.84;5077919;28;20191;-58
2022/03/13 01:42:55;;;;;;;18.43;12.70;;;;;;;-0.60;57.37;100747.31;5072591;28;20221;-57
2022/03/13 01:45:26;;;;;;;18.70;12.57;;;;;;;-0.62;56.71;100743.81;5072912;28;20200;-57
2022/03/13 01:47:53;;;;;;;20.00;15.18;;;;;;;-0.68;56.49;100707.97;5071779;28;20453;-58
2022/03/13 01:50:20;;;;;;;18.13;14.10;;;;;;;-0.41;56.14;100740.44;5055036;28;20197;-57
2022/03/13 01:52:49;;;;;;;19.43;13.30;;;;;;;-0.44;56.65;100749.44;5052943;28;20587;-58
2022/03/13 01:55:17;;;;;;;18.77;12.73;;;;;;;-0.44;56.74;100747.78;5071627;28;20184;-58
2022/03/13 01:57:45;;;;;;;20.67;13.77;;;;;;;-0.50;56.50;100747.31;5069371;28;20191;-58
2022/03/13 02:00:14;;;;;;;20.20;13.80;;;;;;;-0.49;56.65;100738.97;5059402;28;20227;-58
2022/03/13 02:02:45;;;;;;;22.73;14.07;;;;;;;-0.62;57.14;100744.69;5060322;28;20298;-58
2022/03/13 02:05:26;;;;;;;21.47;14.70;;;;;;;-0.91;57.35;100686.00;5069898;28;20213;-58
2022/03/13 02:07:56;;;;;;;23.33;14.60;;;;;;;-0.68;56.88;100734.09;5052796;28;20204;-58
2022/03/13 02:10:23;;;;;;;22.93;14.77;;;;;;;-0.94;57.89;100703.41;5052061;28;20654;-58
2022/03/13 02:12:49;;;;;;;24.05;17.63;;;;;;;-0.73;57.79;100742.94;5051272;28;20980;-58
2022/03/13 02:15:17;;;;;;;22.00;13.97;;;;;;;-0.65;58.24;100743.56;5052370;28;20727;-58
2022/03/13 02:17:44;;;;;;;22.30;13.40;;;;;;;-0.65;58.32;100741.03;5052222;28;20234;-58
2022/03/13 02:20:15;;;;;;;22.52;15.15;;;;;;;-0.64;58.31;100733.59;5051879;28;20451;-58
2022/03/13 02:22:46;;;;;;;22.00;14.30;;;;;;;-0.63;58.67;100729.41;5052419;28;20193;-59
2022/03/13 02:25:20;;;;;;;18.70;13.90;;;;;;;-0.58;58.32;100729.78;5051716;28;20204;-58
2022/03/13 02:27:47;;;;;;;18.53;13.17;;;;;;;-0.66;58.97;100722.47;5052112;28;20215;-58
2022/03/13 02:30:14;;;;;;;17.23;12.33;;;;;;;-0.54;58.43;100729.25;5052461;28;20192;-57
2022/03/13 02:32:41;;;;;;;15.60;11.23;;;;;;;-0.58;57.77;100729.78;5052342;28;20196;-56
2022/03/13 02:35:11;;;;;;;16.60;10.93;;;;;;;-0.58;57.73;100719.69;5052319;28;20200;-57
2022/03/13 02:37:40;;;;;;;15.53;11.57;;;;;;;-0.56;57.72;100728.25;5051968;28;20274;-57
2022/03/13 02:40:17;;;;;;;14.63;11.30;;;;;;;-0.46;56.80;100728.22;5051845;28;20207;-57
2022/03/13 02:42:43;;;;;;;16.20;11.10;;;;;;;-0.53;57.06;100723.47;5051865;28;20180;-57
2022/03/13 02:45:11;;;;;;;18.70;11.40;;;;;;;-0.64;56.71;100704.97;5051747;28;20276;-57
2022/03/13 02:47:39;;;;;;;16.57;11.23;;;;;;;-0.50;56.94;100733.81;5052072;28;20223;-57
2022/03/13 02:50:06;;;;;;;22.33;11.97;;;;;;;-0.55;56.57;100725.88;5052116;28;20180;-57
2022/03/13 02:52:33;;;;;;;23.83;13.48;;;;;;;-0.47;57.02;100732.41;5051360;28;20447;-57
2022/03/13 02:55:00;;;;;;;16.00;12.10;;;;;;;-0.40;57.28;100731.22;5051594;28;20654;-58
2022/03/13 02:57:28;;;;;;;16.70;12.13;;;;;;;-0.43;56.84;100726.81;5051657;28;20193;-57
2022/03/13 02:59:55;;;;;;;17.87;12.60;;;;;;;-0.49;57.38;100733.91;5051523;28;20220;-57
2022/03/13 03:02:22;;;;;;;19.07;12.67;;;;;;;-0.50;58.37;100728.75;5051697;28;20188;-58
2022/03/13 03:04:53;;;;;;;23.50;14.30;;;;;;;-0.52;58.16;100741.25;5051583;28;20198;-57
2022/03/13 03:07:20;;;;;;;23.50;14.53;;;;;;;-0.54;59.13;100732.66;5051844;28;20649;-57
2022/03/13 03:09:47;;;;;;;22.67;14.23;;;;;;;-0.62;59.85;100729.53;5051398;28;20291;-57
2022/03/13 03:12:14;;;;;;;23.33;15.57;;;;;;;-0.74;60.21;100721.00;5051718;28;20192;-57
2022/03/13 03:14:43;;;;;;;23.63;16.47;;;;;;;-0.71;60.01;100733.84;5066804;28;20282;-57
2022/03/13 03:17:10;;;;;;;25.47;16.03;;;;;;;-0.71;60.42;100732.97;5077206;28;20183;-58
2022/03/13 03:19:37;;;;;;;31.40;17.63;;;;;;;-0.68;60.75;100728.16;5078468;28;20567;-58
2022/03/13 03:22:04;;;;;;;22.70;15.90;;;;;;;-0.70;61.05;100727.16;5080259;28;20183;-58
2022/03/13 03:24:31;;;;;;;26.67;15.67;;;;;;;-0.73;61.21;100717.72;5077109;28;20188;-58
2022/03/13 03:26:58;;;;;;;22.67;14.87;;;;;;;-0.78;60.27;100711.44;5080759;28;20215;-59
2022/03/13 03:29:26;;;;;;;29.07;16.00;;;;;;;-0.67;61.08;100709.75;5081581;28;20199;-59
2022/03/13 03:31:55;;;;;;;22.03;14.57;;;;;;;-0.65;61.34;100709.13;5077201;28;20547;-59
2022/03/13 03:34:24;;;;;;;22.13;14.00;;;;;;;-0.79;60.11;100697.03;5068343;28;20282;-59
2022/03/13 03:36:53;;;;;;;17.57;12.17;;;;;;;-0.71;59.52;100710.25;5066625;28;20199;-59
2022/03/13 03:39:21;;;;;;;18.00;12.07;;;;;;;-0.72;58.10;100709.41;5069931;28;20199;-59
2022/03/13 03:41:50;;;;;;;15.90;11.20;;;;;;;-0.70;58.15;100710.41;5070598;28;20199;-59
2022/03/13 03:44:18;;;;;;;16.57;12.73;;;;;;;-0.68;58.90;100702.94;5070757;28;20191;-59
2022/03/13 03:46:47;;;;;;;21.08;16.00;;;;;;;-0.57;58.22;100706.28;5069611;28;20877;-59
2022/03/13 03:49:15;;;;;;;19.33;12.43;;;;;;;-0.45;58.00;100699.72;5050658;28;20662;-59
2022/03/13 03:51:43;;;;;;;16.87;12.33;;;;;;;-0.48;56.97;100707.03;5050581;28;20666;-59
2022/03/13 03:54:11;;;;;;;21.70;13.38;;;;;;;-0.79;57.24;100653.25;5050423;28;21021;-59
2022/03/13 03:56:38;;;;;;;17.40;11.70;;;;;;;-0.45;57.27;100699.72;5050598;28;20191;-59
2022/03/13 03:59:05;;;;;;;20.17;12.63;;;;;;;-0.43;57.31;100699.06;5050452;28;20331;-59
2022/03/13 04:01:37;;;;;;;21.63;11.87;;;;;;;-0.47;56.69;100698.72;5054704;28;20203;-58
2022/03/13 04:04:06;;;;;;;19.57;12.90;;;;;;;-0.49;56.35;100700.22;5070365;28;20202;-60
2022/03/13 04:06:37;;;;;;;15.77;12.00;;;;;;;-0.45;57.04;100694.66;5070287;28;20192;-59
2022/03/13 04:09:05;;;;;;;18.30;12.00;;;;;;;-0.54;57.56;100686.34;5070703;28;20280;-58
2022/03/13 04:11:32;;;;;;;17.47;11.97;;;;;;;-0.51;57.65;100705.16;5070562;28;20202;-59
2022/03/13 04:13:59;;;;;;;20.30;13.17;;;;;;;-0.49;56.94;100701.09;5070742;28;20217;-59
2022/03/13 04:16:26;;;;;;;19.93;13.30;;;;;;;-0.55;57.69;100689.66;5070480;28;20196;-59
2022/03/13 04:18:54;;;;;;;19.40;13.50;;;;;;;-0.62;57.39;100704.31;5070577;28;20202;-58
2022/03/13 04:21:22;;;;;;;16.90;12.93;;;;;;;-0.62;57.68;100698.38;5070423;28;20191;-59
2022/03/13 04:23:51;;;;;;;24.20;13.97;;;;;;;-0.87;59.00;100707.28;5070287;28;20245;-59
2022/03/13 04:26:18;;;;;;;19.80;13.90;;;;;;;-0.98;58.84;100708.94;5070219;28;20522;-59
2022/03/13 04:28:49;;;;;;;20.27;12.63;;;;;;;-1.08;59.14;100705.56;5070046;28;20223;-59
2022/03/13 04:31:16;;;;;;;18.60;13.23;;;;;;;-1.21;60.25;100706.22;5070183;28;20199;-60
2022/03/13 04:33:43;;;;;;;16.83;12.00;;;;;;;-1.25;60.44;100709.22;5070550;28;20195;-59
2022/03/13 04:36:12;;;;;;;21.73;12.37;;;;;;;-1.16;61.02;100714.13;5070202;28;20192;-59
2022/03/13 04:38:40;;;;;;;16.47;12.37;;;;;;;-1.14;61.05;100708.47;5069989;28;20195;-59
2022/03/13 04:41:08;;;;;;;17.37;12.33;;;;;;;-1.09;60.69;100711.34;5070672;28;20195;-59
2022/03/13 04:43:35;;;;;;;15.23;11.30;;;;;;;-1.06;59.75;100707.44;5070240;28;20297;-59
2022/03/13 04:46:02;;;;;;;19.30;12.37;;;;;;;-1.04;59.14;100705.91;5069291;28;20194;-60
2022/03/13 04:48:32;;;;;;;18.37;12.23;;;;;;;-0.90;58.57;100712.06;5070194;28;20242;-59
2022/03/13 04:51:00;;;;;;;20.37;12.23;;;;;;;-0.87;58.93;100720.78;5073470;28;20191;-59
2022/03/13 04:53:27;;;;;;;19.40;12.97;;;;;;;-1.29;58.94;100629.09;5073910;28;20562;-59
2022/03/13 04:55:54;;;;;;;20.10;13.07;;;;;;;-0.79;58.39;100711.28;5073096;28;20198;-59
2022/03/13 04:58:24;;;;;;;16.40;12.57;;;;;;;-0.76;58.15;100720.00;5073857;28;20243;-59
2022/03/13 05:00:51;;;;;;;20.98;15.32;;;;;;;-0.70;58.57;100712.03;5059310;28;20938;-59
2022/03/13 05:03:18;;;;;;;23.30;14.43;;;;;;;-0.66;58.12;100714.91;5053920;28;20192;-59
2022/03/13 05:05:45;;;;;;;18.53;13.13;;;;;;;-0.63;57.28;100702.53;5053731;28;20685;-60
2022/03/13 05:08:14;;;;;;;20.23;13.90;;;;;;;-0.89;58.41;100676.00;5053991;28;20224;-59
2022/03/13 05:10:42;;;;;;;16.40;11.93;;;;;;;-0.66;57.85;100716.56;5054131;28;20193;-59
2022/03/13 05:13:11;;;;;;;19.43;13.63;;;;;;;-0.69;58.47;100713.81;5053394;28;20192;-59
2022/03/13 05:15:40;;;;;;;21.13;13.87;;;;;;;-0.64;58.33;100710.00;5060770;28;20194;-59
2022/03/13 05:18:08;;;;;;;17.80;12.97;;;;;;;-0.69;58.01;100699.53;5073449;28;20587;-59
2022/03/13 05:20:35;;;;;;;20.27;13.27;;;;;;;-0.64;58.72;100705.84;5073274;28;20638;-59
2022/03/13 05:23:03;;;;;;;22.17;14.07;;;;;;;-0.62;58.37;100701.78;5073348;28;20589;-58
2022/03/13 05:25:32;;;;;;;19.90;13.97;;;;;;;-0.55;58.17;100714.91;5073181;28;20528;-59
2022/03/13 05:27:59;;;;;;;18.80;13.10;;;;;;;-0.50;58.55;100716.13;5072920;28;20841;-60
2022/03/13 05:30:26;;;;;;;17.50;13.07;;;;;;;-0.40;57.95;100722.03;5072979;28;20191;-59
2022/03/13 05:32:55;;;;;;;19.87;13.07;;;;;;;-0.35;58.59;100717.31;5073247;28;20192;-59
2022/03/13 05:35:22;;;;;;;22.38;15.57;;;;;;;-0.28;57.35;100722.09;5072018;28;20438;-60
2022/03/13 05:37:49;;;;;;;18.33;12.67;;;;;;;-0.17;57.16;100718.78;5073047;28;20192;-60
2022/03/13 05:40:18;;;;;;;20.27;13.10;;;;;;;-0.12;56.90;100720.00;5072176;28;20574;-60
2022/03/13 05:42:50;;;;;;;16.73;12.00;;;;;;;-0.24;56.73;100689.63;5073090;28;20238;-60
2022/03/13 05:45:19;;;;;;;19.83;13.00;;;;;;;-0.01;56.47;100721.72;5072813;28;20253;-59
2022/03/13 05:47:47;;;;;;;20.93;13.97;;;;;;;0.02;56.87;100721.06;5062683;28;20220;-61
2022/03/13 05:50:16;;;;;;;18.27;13.60;;;;;;;-0.05;57.45;100723.13;5052971;28;20193;-59
2022/03/13 05:52:46;;;;;;;18.60;13.17;;;;;;;0.03;57.26;100723.69;5052697;28;20196;-59
2022/03/13 05:55:14;;;;;;;20.73;13.77;;;;;;;-0.04;56.34;100712.25;5053003;28;20223;-59
2022/03/13 05:57:41;;;;;;;21.23;14.70;;;;;;;0.07;56.33;100720.66;5052756;28;20196;-59
2022/03/13 06:00:10;;;;;;;21.92;15.73;;;;;;;0.19;56.90;100731.72;5051841;28;20453;-59
2022/03/13 06:02:40;;;;;;;24.83;15.30;;;;;;;0.31;56.71;100726.69;5051916;28;20196;-59
2022/03/13 06:05:09;;;;;;;19.37;13.33;;;;;;;0.41;55.26;100724.13;5052728;28;20195;-60
2022/03/13 06:07:38;;;;;;;24.30;16.03;;;;;;;0.45;55.42;100729.50;5065911;28;20495;-59
2022/03/13 06:10:06;;;;;;;21.27;14.43;;;;;;;0.54;55.01;100724.28;5072586;28;20660;-59
2022/03/13 06:12:34;;;;;;;23.40;14.07;;;;;;;0.64;54.70;100721.66;5072025;28;20192;-60
2022/03/13 06:15:01;;;;;;;21.33;14.63;;;;;;;0.71;55.06;100730.59;5082012;28;20209;-59
2022/03/13 06:17:29;;;;;;;22.13;14.50;;;;;;;0.77;54.69;100734.44;5074014;28;20195;-59
2022/03/13 06:19:56;;;;;;;26.40;16.77;;;;;;;0.74;54.00;100706.41;5072178;28;20214;-60
2022/03/13 06:22:24;;;;;;;21.57;15.50;;;;;;;0.90;53.83;100734.59;5072323;28;20192;-60
2022/03/13 06:24:52;;;;;;;29.17;17.77;;;;;;;1.00;53.82;100719.31;5072361;28;20196;-59
2022/03/13 06:27:20;;;;;;;21.03;15.80;;;;;;;1.13;53.88;100724.50;5072763;28;20199;-60
2022/03/13 06:29:47;;;;;;;20.83;15.03;;;;;;;1.13;53.40;100729.56;5072791;28;20219;-60
2022/03/13 06:32:14;;;;;;;19.80;14.03;;;;;;;1.26;52.39;100733.88;5076728;28;20290;-60
2022/03/13 06:34:41;;;;;;;26.38;18.48;;;;;;;1.35;52.51;100728.56;5080661;28;20444;-59
2022/03/13 06:37:08;;;;;;;24.63;16.63;;;;;;;1.49;52.31;100731.31;5082934;28;21775;-60
2022/03/13 06:39:35;;;;;;;20.17;15.70;;;;;;;1.66;51.47;100733.41;5078383;28;20187;-60
2022/03/13 06:42:05;;;;;;;22.63;15.37;;;;;;;1.74;50.78;100737.38;5079309;28;20196;-59
2022/03/13 06:44:32;;;;;;;25.07;14.80;;;;;;;1.81;50.46;100738.69;5076167;28;20192;-59
2022/03/13 06:46:59;;;;;;;23.23;14.90;;;;;;;1.77;49.87;100744.28;5080651;28;20187;-59
2022/03/13 06:49:26;;;;;;;21.33;16.23;;;;;;;1.85;50.17;100734.69;5082684;28;20219;-59
2022/03/13 06:51:53;;;;;;;25.33;17.73;;;;;;;1.89;49.97;100737.56;5076553;28;20274;-58
2022/03/13 06:54:20;;;;;;;22.60;17.00;;;;;;;1.91;49.47;100737.66;5081191;28;20199;-59
2022/03/13 06:56:50;;;;;;;26.77;15.50;;;;;;;2.03;49.37;100736.00;5078655;28;20189;-59
2022/03/13 06:59:18;;;;;;;22.03;15.90;;;;;;;1.98;48.64;100734.81;5079017;28;20226;-59
2022/03/13 07:01:45;;;;;;;23.70;16.80;;;;;;;2.07;48.53;100732.88;5081448;28;20188;-59
2022/03/13 07:04:14;;;;;;;20.07;15.10;;;;;;;2.23;48.56;100733.16;5079616;28;20221;-59
2022/03/13 07:06:42;;;;;;;25.27;16.60;;;;;;;2.37;48.28;100725.72;5075284;28;20262;-59
2022/03/13 07:09:09;;;;;;;22.23;14.37;;;;;;;2.60;48.01;100718.78;5070668;28;20547;-60
2022/03/13 07:11:36;;;;;;;16.53;12.40;;;;;;;2.71;47.17;100718.72;5070836;28;20191;-59
2022/03/13 07:14:04;;;;;;;22.13;15.13;;;;;;;2.83;46.86;100718.69;5071030;28;20585;-59
2022/03/13 07:16:33;;;;;;;25.77;15.47;;;;;;;2.93;46.62;100716.84;5075616;28;20191;-59
2022/03/13 07:18:59;;;;;;;26.03;17.13;;;;;;;3.05;46.56;100718.41;5071823;28;20192;-58
2022/03/13 07:21:26;;;;;;;27.20;15.13;;;;;;;3.07;46.89;100721.94;5070967;28;20184;-59
2022/03/13 07:23:53;;;;;;;17.73;12.80;;;;;;;3.13;45.21;100714.72;5071150;28;20191;-60
2022/03/13 07:26:20;;;;;;;22.83;11.83;;;;;;;3.10;44.72;100712.88;5070644;28;20210;-59
2022/03/13 07:28:47;;;;;;;17.97;12.20;;;;;;;3.05;44.33;100711.66;5070684;28;20307;-59
2022/03/13 07:31:14;;;;;;;16.50;11.87;;;;;;;3.07;44.10;100704.16;5070863;28;20198;-59
2022/03/13 07:33:42;;;;;;;15.67;10.60;;;;;;;3.25;43.80;100706.22;5070859;28;20279;-61
2022/03/13 07:36:09;;;;;;;14.27;10.80;;;;;;;3.42;44.24;100707.28;5070144;28;20697;-59
2022/03/13 07:38:36;;;;;;;13.13;9.87;;;;;;;3.49;42.96;100704.34;5070101;28;20284;-59
2022/03/13 07:41:03;;;;;;;12.30;9.20;;;;;;;3.52;41.98;100712.16;5078113;28;20203;-59
2022/03/13 07:43:31;;;;;;;10.77;7.70;;;;;;;3.63;41.04;100702.66;5074301;28;20218;-60
2022/03/13 07:45:58;;;;;;;8.90;5.43;;;;;;;3.71;38.99;100702.38;5077912;28;20625;-60
2022/03/13 07:48:25;;;;;;;6.05;5.18;;;;;;;3.77;38.05;100695.13;5077693;28;20898;-60
2022/03/13 07:50:54;;;;;;;4.73;4.10;;;;;;;3.78;36.10;100704.53;5078363;28;20208;-58
2022/03/13 07:53:21;;;;;;;5.03;4.07;;;;;;;3.80;36.25;100696.97;5080613;28;20209;-58
2022/03/13 07:55:48;;;;;;;4.47;4.07;;;;;;;3.79;36.22;100695.25;5080209;28;20202;-57
2022/03/13 07:58:14;;;;;;;8.47;5.67;;;;;;;3.84;36.43;100697.28;5079746;28;20252;-58
2022/03/13 08:00:41;;;;;;;6.17;5.23;;;;;;;3.95;37.59;100700.50;5078833;28;20657;-58
2022/03/13 08:03:08;;;;;;;8.43;5.90;;;;;;;4.04;38.43;100691.75;5069891;28;20207;-58
2022/03/13 08:05:35;;;;;;;7.90;6.10;;;;;;;4.10;38.35;100704.84;5070117;28;20235;-58
2022/03/13 08:08:03;;;;;;;6.43;5.33;;;;;;;4.16;37.87;100689.97;5070229;28;20203;-57
2022/03/13 08:10:30;;;;;;;7.63;5.00;;;;;;;4.33;36.64;100703.69;5069545;28;20223;-57
2022/03/13 08:12:57;;;;;;;5.77;4.20;;;;;;;4.38;35.87;100697.22;5069717;28;20274;-57
2022/03/13 08:15:24;;;;;;;4.80;4.30;;;;;;;4.42;35.27;100695.72;5069724;28;20582;-58
2022/03/13 08:17:51;;;;;;;5.87;4.87;;;;;;;4.41;35.62;100699.94;5070240;28;20203;-58
2022/03/13 08:20:18;;;;;;;5.85;4.88;;;;;;;4.48;35.03;100703.72;5068952;28;21018;-57
2022/03/13 08:22:45;;;;;;;6.57;4.90;;;;;;;4.54;34.74;100699.88;5069682;28;20318;-57
2022/03/13 08:25:18;;;;;;;6.03;5.03;;;;;;;4.66;36.05;100694.63;5069184;28;20196;-57
2022/03/13 08:27:45;;;;;;;8.97;5.87;;;;;;;4.81;35.96;100687.88;5069513;28;20283;-58
2022/03/13 08:30:13;;;;;;;7.47;5.77;;;;;;;4.86;36.12;100683.94;5069358;28;20223;-58
2022/03/13 08:32:40;;;;;;;7.30;5.00;;;;;;;4.96;35.00;100682.78;5069606;28;20278;-58
2022/03/13 08:35:08;;;;;;;6.33;4.93;;;;;;;5.03;34.81;100672.16;5069783;28;20199;-57
2022/03/13 08:37:35;;;;;;;5.43;4.30;;;;;;;5.12;34.86;100683.75;5068096;28;20193;-58
2022/03/13 08:40:03;;;;;;;6.47;4.83;;;;;;;5.24;34.31;100676.81;5078197;28;20219;-58
2022/03/13 08:42:32;;;;;;;4.73;4.23;;;;;;;5.32;33.78;100680.66;5079538;28;20179;-57
2022/03/13 08:44:59;;;;;;;5.83;4.73;;;;;;;5.34;34.03;100671.41;5071477;28;20286;-58
2022/03/13 08:47:26;;;;;;;6.07;5.40;;;;;;;5.45;33.78;100674.56;5068864;28;20193;-57
2022/03/13 08:49:53;;;;;;;5.60;4.85;;;;;;;5.36;33.01;100682.56;5068413;28;20446;-57
2022/03/13 08:52:20;;;;;;;6.27;4.90;;;;;;;5.42;33.11;100684.59;5069341;28;20250;-57
2022/03/13 08:54:47;;;;;;;6.03;4.60;;;;;;;5.51;33.71;100672.34;5069391;28;20249;-58
2022/03/13 08:57:14;;;;;;;5.37;4.60;;;;;;;5.57;33.77;100676.91;5069158;28;20191;-57
2022/03/13 08:59:42;;;;;;;4.80;4.33;;;;;;;5.58;33.67;100668.44;5068985;28;20227;-58
2022/03/13 09:02:11;;;;;;;6.30;4.10;;;;;;;5.68;32.42;100660.53;5074821;28;20190;-57
2022/03/13 09:04:43;;;;;;;6.20;5.43;;;;;;;5.66;33.12;100652.78;5075669;28;20266;-58
2022/03/13 09:07:10;;;;;;;6.33;5.33;;;;;;;5.75;34.21;100653.28;5073178;28;20204;-58
2022/03/13 09:09:37;;;;;;;5.33;4.27;;;;;;;5.74;33.39;100648.97;5079952;28;20585;-58
2022/03/13 09:12:06;;;;;;;6.85;4.90;;;;;;;5.85;34.27;100642.78;5077697;28;20434;-57
2022/03/13 09:14:34;;;;;;;6.37;5.70;;;;;;;6.00;32.99;100654.59;5078956;28;20196;-58
2022/03/13 09:17:03;;;;;;;5.63;4.37;;;;;;;6.11;29.95;100645.84;5060145;28;20235;-58
2022/03/13 09:19:30;;;;;;;5.53;4.67;;;;;;;6.16;31.21;100645.28;5069608;28;20189;-58
2022/03/13 09:21:57;;;;;;;6.25;5.55;;;;;;;6.27;32.00;100649.28;5068188;28;20448;-59
2022/03/13 09:24:24;;;;;;;5.23;4.13;;;;;;;6.32;30.43;100646.94;5069273;28;20199;-57
2022/03/13 09:26:51;;;;;;;5.23;4.40;;;;;;;6.19;30.29;100649.66;5069221;28;20619;-57
2022/03/13 09:29:18;;;;;;;4.80;4.27;;;;;;;6.20;31.02;100638.69;5068909;28;20215;-57
2022/03/13 09:31:44;;;;;;;5.77;4.63;;;;;;;6.29;30.57;100642.56;5059402;28;20664;-58
2022/03/13 09:34:13;;;;;;;7.43;4.70;;;;;;;6.38;30.17;100630.28;5049218;28;20204;-57
2022/03/13 09:36:42;;;;;;;6.53;5.03;;;;;;;6.51;30.01;100634.31;5064108;28;20192;-58
2022/03/13 09:39:09;;;;;;;7.67;5.10;;;;;;;6.71;29.38;100625.09;5073039;28;20196;-57
2022/03/13 09:41:38;;;;;;;4.80;3.80;;;;;;;6.70;28.81;100631.03;5071623;28;20566;-58
2022/03/13 09:44:06;;;;;;;5.30;4.80;;;;;;;6.73;29.29;100620.97;5055110;28;20439;-58
2022/03/13 09:46:35;;;;;;;4.77;4.20;;;;;;;6.88;29.49;100620.03;5051534;28;20873;-58
2022/03/13 09:49:02;;;;;;;7.33;4.77;;;;;;;6.93;30.01;100617.69;5051315;28;20249;-57
2022/03/13 09:51:31;;;;;;;6.70;4.67;;;;;;;7.08;29.16;100615.88;5051557;28;20194;-59
2022/03/13 09:53:58;;;;;;;7.27;4.13;;;;;;;7.18;28.34;100612.97;5051579;28;20189;-57
2022/03/13 09:56:25;;;;;;;4.90;4.40;;;;;;;6.98;27.89;100627.34;5052185;28;20189;-57
2022/03/13 09:58:52;;;;;;;6.30;4.70;;;;;;;7.05;28.17;100613.19;5074367;28;20230;-60
2022/03/13 10:01:19;;;;;;;5.23;4.73;;;;;;;7.24;28.60;100608.13;5072390;28;20499;-58
2022/03/13 10:03:46;;;;;;;5.73;4.30;;;;;;;7.32;27.77;100605.94;5072472;28;20199;-58
2022/03/13 10:06:13;;;;;;;5.07;4.20;;;;;;;7.30;26.79;100605.00;5072781;28;20621;-58
2022/03/13 10:08:42;;;;;;;5.37;4.37;;;;;;;7.30;27.11;100598.22;5072274;28;20279;-58
2022/03/13 10:11:10;;;;;;;4.03;3.63;;;;;;;7.49;27.15;100594.81;5071911;28;20252;-59
2022/03/13 10:13:39;;;;;;;6.07;4.60;;;;;;;7.62;26.19;100605.66;5071951;28;20656;-57
2022/03/13 10:16:06;;;;;;;5.30;4.77;;;;;;;7.72;25.32;100594.16;5071988;28;20195;-58
2022/03/13 10:18:34;;;;;;;6.33;4.60;;;;;;;7.88;24.90;100598.31;5071817;28;20641;-58
2022/03/13 10:21:08;;;;;;;5.90;4.60;;;;;;;7.87;23.55;100587.19;5073338;28;20201;-58
2022/03/13 10:23:35;;;;;;;6.00;5.00;;;;;;;7.86;23.58;100593.09;5072005;28;20206;-58
2022/03/13 10:26:05;;;;;;;7.35;6.13;;;;;;;7.98;24.42;100583.41;5071390;28;20528;-58
2022/03/13 10:28:33;;;;;;;5.67;5.00;;;;;;;8.06;24.51;100588.84;5071669;28;20567;-58
2022/03/13 10:31:15;;;;;;;4.43;4.03;;;;;;;8.25;24.59;100578.59;5077192;28;20241;-58
2022/03/13 10:33:55;;;;;;;5.00;4.47;;;;;;;8.23;24.17;100577.66;5071500;28;20241;-58
2022/03/13 10:36:31;;;;;;;5.40;4.63;;;;;;;8.29;23.84;100572.84;5071779;28;20213;-57
2022/03/13 10:38:59;;;;;;;6.23;4.50;;;;;;;8.47;24.08;100573.59;5072413;28;20195;-58
2022/03/13 10:41:45;;;;;;;5.27;4.70;;;;;;;8.53;23.64;100573.88;5080711;28;20209;-58
2022/03/13 10:44:14;;;;;;;5.97;4.87;;;;;;;8.72;23.62;100570.38;5081644;28;20246;-58
2022/03/13 10:46:42;;;;;;;7.17;5.03;;;;;;;8.71;23.54;100576.28;5076230;28;20195;-58
2022/03/13 10:49:09;;;;;;;5.97;5.20;;;;;;;8.99;23.49;100557.78;5075756;28;20225;-58
2022/03/13 10:51:38;;;;;;;6.77;4.83;;;;;;;9.04;23.48;100549.44;5075877;28;20194;-57
2022/03/13 10:54:06;;;;;;;5.90;5.27;;;;;;;9.37;23.64;100550.75;5073437;28;20202;-58
2022/03/13 10:56:34;;;;;;;8.33;5.37;;;;;;;9.31;22.57;100555.63;5080330;28;20199;-58
2022/03/13 10:59:17;;;;;;;6.20;5.60;;;;;;;9.54;22.77;100548.81;5079970;28;20306;-61
2022/03/13 11:01:44;;;;;;;5.17;4.23;;;;;;;9.44;22.65;100550.19;5074977;28;20203;-60
2022/03/13 11:04:15;;;;;;;7.50;6.30;;;;;;;9.58;22.15;100547.25;5073364;28;20191;-60
2022/03/13 11:06:43;;;;;;;6.57;5.03;;;;;;;9.70;21.52;100537.41;5055012;28;20233;-59
2022/03/13 11:09:10;;;;;;;5.77;4.90;;;;;;;9.81;21.47;100536.97;5070447;28;20696;-60
2022/03/13 11:11:41;;;;;;;5.50;5.00;;;;;;;9.75;21.52;100529.06;5070363;28;20195;-61
2022/03/13 11:14:08;;;;;;;6.33;5.00;;;;;;;9.53;22.14;100529.13;5070267;28;20194;-61
2022/03/13 11:16:35;;;;;;;5.27;4.60;;;;;;;9.71;22.46;100532.34;5069799;28;20727;-60
2022/03/13 11:19:04;;;;;;;6.60;5.23;;;;;;;9.82;22.79;100517.31;5070591;28;20195;-60
2022/03/13 11:21:32;;;;;;;5.60;5.10;;;;;;;10.02;22.29;100524.94;5076506;28;20515;-60
2022/03/13 11:24:00;;;;;;;6.17;5.33;;;;;;;9.71;22.03;100475.91;5080872;28;20197;-60